Time;durP1;ratioP1;P1;durP2;ratioP2;P2;SDS_P1;SDS_P2;PMS_P1;PMS_P2;Temp;Humidity;BMP_temperature;BMP_pressure;BME280_temperature;BME280_humidity;BME280_pressure;Samples;Min_cycle;Max_cycle;Signal;HPM_P1;HPM_P2
2021/12/26 00:01:06;;;;;;;3.28;1.38;;;;;;;;;;5071844;28;20658;-60
2021/12/26 00:03:33;;;;;;;2.03;1.20;;;;;;;;;;5069892;28;20527;-60
2021/12/26 00:06:03;;;;;;;2.35;1.00;;;;;;;;;;5071927;28;20040;-59
2021/12/26 00:08:29;;;;;;;3.90;1.60;;;;;;;;;;5072011;28;20047;-59
2021/12/26 00:10:55;;;;;;;3.20;1.30;;;;;;;;;;5070891;28;20036;-60
2021/12/26 00:13:21;;;;;;;2.58;1.17;;;;;;;;;;5071328;28;20080;-59
2021/12/26 00:15:48;;;;;;;2.47;1.00;;;;;;;;;;5071597;28;20374;-60
2021/12/26 00:18:15;;;;;;;4.05;1.30;;;;;;;;;;5066587;28;20546;-60
2021/12/26 00:20:41;;;;;;;3.35;1.35;;;;;;;;;;5071653;28;20124;-59
2021/12/26 00:23:08;;;;;;;3.42;1.60;;;;;;;;;;5071051;28;20044;-59
2021/12/26 00:25:34;;;;;;;2.72;1.30;;;;;;;;;;5070889;28;20056;-60
2021/12/26 00:28:01;;;;;;;3.45;1.50;;;;;;;;;;5071722;28;20066;-59
2021/12/26 00:30:27;;;;;;;1.85;1.10;;;;;;;;;;5071140;28;20043;-59
2021/12/26 00:32:53;;;;;;;2.65;1.40;;;;;;;;;;5070829;28;20040;-60
2021/12/26 00:35:20;;;;;;;5.07;1.50;;;;;;;;;;5071033;28;20041;-60
2021/12/26 00:37:47;;;;;;;2.22;1.27;;;;;;;;;;5071660;28;20423;-59
2021/12/26 00:40:14;;;;;;;4.47;1.40;;;;;;;;;;5070903;28;20467;-59
2021/12/26 00:42:40;;;;;;;4.40;1.27;;;;;;;;;;5071126;28;20049;-59
2021/12/26 00:45:07;;;;;;;5.13;1.40;;;;;;;;;;5071488;28;20090;-59
2021/12/26 00:47:34;;;;;;;3.03;1.20;;;;;;;;;;5070865;28;20048;-60
2021/12/26 00:50:00;;;;;;;3.03;1.10;;;;;;;;;;5071402;28;20476;-60
2021/12/26 00:52:26;;;;;;;3.58;1.20;;;;;;;;;;5071292;28;20040;-59
2021/12/26 00:54:52;;;;;;;1.63;1.23;;;;;;;;;;5070618;28;20041;-60
2021/12/26 00:57:19;;;;;;;3.45;1.70;;;;;;;;;;5071366;28;20041;-59
2021/12/26 00:59:45;;;;;;;2.95;1.20;;;;;;;;;;5071356;28;20048;-59
2021/12/26 01:02:11;;;;;;;4.80;1.30;;;;;;;;;;5070682;28;20040;-60
2021/12/26 01:04:39;;;;;;;2.35;1.25;;;;;;;;;;5071267;28;20108;-59
2021/12/26 01:07:11;;;;;;;2.00;1.15;;;;;;;;;;5071325;28;20045;-59
2021/12/26 01:09:37;;;;;;;1.98;1.05;;;;;;;;;;5070434;28;20116;-59
2021/12/26 01:12:12;;;;;;;5.13;1.77;;;;;;;;;;5071181;28;20367;-59
2021/12/26 01:14:45;;;;;;;1.85;0.95;;;;;;;;;;5071151;28;20070;-59
2021/12/26 01:17:15;;;;;;;1.77;0.93;;;;;;;;;;5070417;28;20671;-59
2021/12/26 01:19:45;;;;;;;3.95;1.52;;;;;;;;;;5071179;28;20044;-60
2021/12/26 01:22:12;;;;;;;3.05;1.10;;;;;;;;;;5070829;28;20048;-60
2021/12/26 01:24:39;;;;;;;4.45;1.50;;;;;;;;;;5070077;28;20045;-60
2021/12/26 01:27:05;;;;;;;3.20;1.10;;;;;;;;;;5070950;28;20040;-59
2021/12/26 01:29:33;;;;;;;4.00;1.30;;;;;;;;;;5071003;28;20044;-60
2021/12/26 01:32:00;;;;;;;2.45;1.20;;;;;;;;;;5070270;28;20114;-60
2021/12/26 01:34:26;;;;;;;2.88;1.45;;;;;;;;;;5070961;28;20041;-58
2021/12/26 01:36:52;;;;;;;2.22;1.27;;;;;;;;;;5103338;28;20634;-59
2021/12/26 01:39:18;;;;;;;1.80;1.00;;;;;;;;;;5070324;28;20473;-59
2021/12/26 01:41:45;;;;;;;4.05;1.52;;;;;;;;;;5070757;28;20080;-59
2021/12/26 01:44:12;;;;;;;2.13;1.20;;;;;;;;;;5070850;28;20079;-59
2021/12/26 01:46:39;;;;;;;2.47;1.50;;;;;;;;;;5070147;28;20473;-59
2021/12/26 01:49:07;;;;;;;3.72;1.20;;;;;;;;;;5074064;28;20043;-59
2021/12/26 01:51:33;;;;;;;3.05;1.30;;;;;;;;;;5074356;28;20040;-60
2021/12/26 01:54:05;;;;;;;2.30;1.30;;;;;;;;;;5073487;28;20517;-60
2021/12/26 01:56:31;;;;;;;2.70;1.30;;;;;;;;;;5074057;28;20047;-59
2021/12/26 01:58:57;;;;;;;1.55;0.90;;;;;;;;;;5074289;28;20032;-59
2021/12/26 02:01:23;;;;;;;2.42;1.30;;;;;;;;;;5073643;28;20055;-60
2021/12/26 02:03:49;;;;;;;2.50;1.30;;;;;;;;;;5074103;28;20072;-59
2021/12/26 02:06:17;;;;;;;3.67;1.27;;;;;;;;;;5074091;28;20055;-59
2021/12/26 02:08:43;;;;;;;3.10;1.20;;;;;;;;;;5073413;28;20036;-59
2021/12/26 02:11:10;;;;;;;1.73;1.10;;;;;;;;;;5073974;28;20032;-60
2021/12/26 02:13:37;;;;;;;2.85;1.00;;;;;;;;;;5073773;28;20528;-59
2021/12/26 02:16:04;;;;;;;2.90;1.20;;;;;;;;;;5105846;28;20052;-59
2021/12/26 02:18:30;;;;;;;3.22;1.40;;;;;;;;;;5073790;28;20036;-59
2021/12/26 02:23:33;;;;;;;3.55;1.20;;;;;;;;;;5072600;28;20105;-60
2021/12/26 02:28:48;;;;;;;3.05;1.40;;;;;;;;;;5061519;28;20052;-59
2021/12/26 02:31:15;;;;;;;2.17;1.15;;;;;;;;;;5052907;28;20041;-60
2021/12/26 02:33:42;;;;;;;3.55;1.15;;;;;;;;;;5053564;28;20045;-59
2021/12/26 02:36:08;;;;;;;3.20;1.45;;;;;;;;;;5053275;28;20080;-59
2021/12/26 02:38:35;;;;;;;2.75;1.25;;;;;;;;;;5052778;28;20116;-59
2021/12/26 02:41:02;;;;;;;2.10;1.20;;;;;;;;;;5053472;28;20171;-59
2021/12/26 02:43:29;;;;;;;2.25;1.02;;;;;;;;;;5053261;28;20075;-60
2021/12/26 02:45:55;;;;;;;2.95;1.40;;;;;;;;;;5052548;28;20502;-59
2021/12/26 02:48:21;;;;;;;2.28;1.10;;;;;;;;;;5053344;28;20079;-59
2021/12/26 02:50:52;;;;;;;3.47;1.67;;;;;;;;;;5053172;28;20106;-60
2021/12/26 02:53:20;;;;;;;3.15;1.20;;;;;;;;;;5052385;28;20511;-59
2021/12/26 02:55:54;;;;;;;4.45;1.80;;;;;;;;;;5052819;28;20037;-59
2021/12/26 02:58:21;;;;;;;2.88;1.23;;;;;;;;;;5052939;28;20127;-59
2021/12/26 03:00:49;;;;;;;3.45;1.23;;;;;;;;;;5052110;28;20042;-59
2021/12/26 03:03:15;;;;;;;5.40;1.35;;;;;;;;;;5052843;28;20171;-59
2021/12/26 03:05:43;;;;;;;3.05;1.48;;;;;;;;;;5053113;28;20052;-59
2021/12/26 03:08:11;;;;;;;2.42;1.13;;;;;;;;;;5052096;28;20076;-59
2021/12/26 03:10:39;;;;;;;3.10;1.35;;;;;;;;;;5052953;28;20119;-60
2021/12/26 03:13:08;;;;;;;2.03;1.17;;;;;;;;;;5052705;28;20780;-59
2021/12/26 03:15:34;;;;;;;2.47;1.27;;;;;;;;;;5052128;28;20439;-59
2021/12/26 03:18:01;;;;;;;3.13;1.50;;;;;;;;;;5052714;28;20041;-60
2021/12/26 03:20:31;;;;;;;3.53;1.40;;;;;;;;;;5052694;28;20048;-59
2021/12/26 03:22:59;;;;;;;3.58;1.17;;;;;;;;;;5051558;28;20468;-59
2021/12/26 03:25:25;;;;;;;3.53;1.60;;;;;;;;;;5054866;28;20052;-59
2021/12/26 03:27:51;;;;;;;2.30;1.23;;;;;;;;;;5072580;28;20426;-59
2021/12/26 03:30:22;;;;;;;1.83;1.13;;;;;;;;;;5071501;28;20090;-59
2021/12/26 03:32:48;;;;;;;2.60;1.27;;;;;;;;;;5072232;28;20037;-59
2021/12/26 03:35:14;;;;;;;3.05;1.48;;;;;;;;;;5072381;28;20059;-58
2021/12/26 03:37:41;;;;;;;3.55;1.52;;;;;;;;;;5071246;28;20467;-60
2021/12/26 03:40:09;;;;;;;2.60;1.23;;;;;;;;;;5071966;28;20041;-59
2021/12/26 03:42:36;;;;;;;3.50;1.25;;;;;;;;;;5072198;28;20087;-59
2021/12/26 03:45:05;;;;;;;1.70;1.52;;;;;;;;;;5071417;28;20478;-59
2021/12/26 03:47:32;;;;;;;4.18;1.60;;;;;;;;;;5072222;28;20391;-59
2021/12/26 03:49:59;;;;;;;2.75;1.08;;;;;;;;;;5071765;28;20044;-59
2021/12/26 03:52:25;;;;;;;2.03;1.27;;;;;;;;;;5070885;28;20043;-59
2021/12/26 03:54:52;;;;;;;2.72;1.23;;;;;;;;;;5072086;28;20132;-59
2021/12/26 03:57:19;;;;;;;3.40;1.55;;;;;;;;;;5071929;28;20052;-59
2021/12/26 03:59:45;;;;;;;2.95;1.23;;;;;;;;;;5071295;28;20071;-59
2021/12/26 04:02:11;;;;;;;7.53;1.80;;;;;;;;;;5071886;28;20475;-59
2021/12/26 04:04:37;;;;;;;4.15;1.70;;;;;;;;;;5071787;28;20505;-59
2021/12/26 04:07:03;;;;;;;3.28;1.67;;;;;;;;;;5070886;28;20076;-59
2021/12/26 04:09:29;;;;;;;5.28;1.50;;;;;;;;;;5071642;28;20037;-59
2021/12/26 04:11:55;;;;;;;2.72;1.80;;;;;;;;;;5071063;28;20040;-60
2021/12/26 04:14:21;;;;;;;6.80;1.55;;;;;;;;;;5070945;28;20548;-60
2021/12/26 04:16:47;;;;;;;3.55;1.70;;;;;;;;;;5071780;28;20070;-59
2021/12/26 04:19:14;;;;;;;5.80;1.67;;;;;;;;;;5071795;28;20055;-59
2021/12/26 04:21:40;;;;;;;5.03;1.50;;;;;;;;;;5070954;28;20123;-59
2021/12/26 04:24:06;;;;;;;2.45;1.52;;;;;;;;;;5071017;28;20140;-60
2021/12/26 04:26:33;;;;;;;3.83;1.25;;;;;;;;;;5071395;28;20049;-59
2021/12/26 04:28:59;;;;;;;2.50;1.40;;;;;;;;;;5070938;28;20033;-59
2021/12/26 04:31:25;;;;;;;6.32;1.85;;;;;;;;;;5071366;28;20422;-59
2021/12/26 04:33:51;;;;;;;1.88;1.27;;;;;;;;;;5071348;28;20040;-59
2021/12/26 04:36:18;;;;;;;3.17;2.03;;;;;;;;;;5070836;28;20040;-59
2021/12/26 04:38:44;;;;;;;2.55;1.40;;;;;;;;;;5071632;28;20090;-59
2021/12/26 04:41:12;;;;;;;5.18;1.80;;;;;;;;;;5071675;28;20483;-59
2021/12/26 04:43:38;;;;;;;6.45;1.58;;;;;;;;;;5069187;28;20067;-59
2021/12/26 04:46:07;;;;;;;3.78;1.60;;;;;;;;;;5071109;28;20048;-59
2021/12/26 04:48:34;;;;;;;2.58;1.60;;;;;;;;;;5071165;28;20047;-59
2021/12/26 04:51:00;;;;;;;3.63;1.63;;;;;;;;;;5070714;28;20043;-59
2021/12/26 04:53:26;;;;;;;3.75;1.48;;;;;;;;;;5071159;28;20072;-59
2021/12/26 04:55:53;;;;;;;2.88;1.38;;;;;;;;;;5071446;28;20044;-59
2021/12/26 04:58:19;;;;;;;3.00;1.42;;;;;;;;;;5069118;28;20411;-59
2021/12/26 05:00:45;;;;;;;3.53;1.60;;;;;;;;;;5071081;28;20048;-59
2021/12/26 05:03:12;;;;;;;3.25;1.98;;;;;;;;;;5071270;28;20048;-59
2021/12/26 05:05:38;;;;;;;3.30;1.45;;;;;;;;;;5070519;28;20040;-59
2021/12/26 05:08:04;;;;;;;2.65;1.58;;;;;;;;;;5071263;28;20048;-60
2021/12/26 05:10:31;;;;;;;2.47;1.55;;;;;;;;;;5071208;28;20033;-59
2021/12/26 05:12:58;;;;;;;3.42;1.60;;;;;;;;;;5070719;28;20036;-60
2021/12/26 05:15:24;;;;;;;3.92;1.80;;;;;;;;;;5070863;28;20542;-59
2021/12/26 05:17:51;;;;;;;4.13;2.10;;;;;;;;;;5071179;28;20059;-59
2021/12/26 05:20:20;;;;;;;3.25;1.90;;;;;;;;;;5070863;28;20040;-59
2021/12/26 05:22:47;;;;;;;2.75;1.90;;;;;;;;;;5071944;28;20506;-58
2021/12/26 05:25:13;;;;;;;3.25;1.50;;;;;;;;;;5074734;28;20063;-59
2021/12/26 05:27:39;;;;;;;2.50;1.30;;;;;;;;;;5074508;28;20041;-59
2021/12/26 05:30:06;;;;;;;4.25;1.80;;;;;;;;;;5074071;28;20150;-59
2021/12/26 05:32:32;;;;;;;3.40;1.60;;;;;;;;;;5074595;28;20040;-60
2021/12/26 05:34:58;;;;;;;3.88;1.73;;;;;;;;;;5074730;28;20044;-59
2021/12/26 05:37:24;;;;;;;2.83;1.77;;;;;;;;;;5073920;28;20048;-59
2021/12/26 05:39:50;;;;;;;6.85;2.20;;;;;;;;;;5074593;28;20405;-59
2021/12/26 05:42:16;;;;;;;4.30;1.60;;;;;;;;;;5074485;28;20040;-59
2021/12/26 05:44:46;;;;;;;3.03;1.60;;;;;;;;;;5073441;28;20395;-59
2021/12/26 05:47:13;;;;;;;4.15;1.67;;;;;;;;;;5074053;28;20071;-59
2021/12/26 05:49:39;;;;;;;3.10;1.48;;;;;;;;;;5074036;28;20039;-59
2021/12/26 05:52:06;;;;;;;3.45;2.38;;;;;;;;;;5073713;28;20032;-59
2021/12/26 05:54:32;;;;;;;3.83;2.13;;;;;;;;;;5073991;28;20040;-60
2021/12/26 05:56:58;;;;;;;3.25;1.73;;;;;;;;;;5074277;28;20429;-59
2021/12/26 05:59:24;;;;;;;3.50;1.65;;;;;;;;;;5073579;28;20076;-60
2021/12/26 06:01:51;;;;;;;2.30;1.50;;;;;;;;;;5074136;28;20348;-59
2021/12/26 06:04:17;;;;;;;3.55;1.58;;;;;;;;;;5074076;28;20124;-59
2021/12/26 06:06:44;;;;;;;4.63;2.22;;;;;;;;;;5073520;28;20467;-59
2021/12/26 06:09:10;;;;;;;3.92;1.70;;;;;;;;;;5106791;28;20127;-59
2021/12/26 06:11:36;;;;;;;3.72;1.55;;;;;;;;;;5073985;28;20567;-59
2021/12/26 06:14:02;;;;;;;3.10;1.45;;;;;;;;;;5073117;28;20079;-60
2021/12/26 06:16:28;;;;;;;3.63;1.70;;;;;;;;;;5074083;28;20072;-59
2021/12/26 06:18:55;;;;;;;2.85;1.77;;;;;;;;;;5073725;28;20040;-59
2021/12/26 06:21:21;;;;;;;3.22;1.77;;;;;;;;;;5073379;28;20070;-59
2021/12/26 06:23:50;;;;;;;2.42;1.45;;;;;;;;;;5073302;28;20064;-59
2021/12/26 06:26:16;;;;;;;4.00;1.63;;;;;;;;;;5073719;28;20044;-58
2021/12/26 06:28:42;;;;;;;1.73;1.48;;;;;;;;;;5073027;28;20486;-59
2021/12/26 06:31:08;;;;;;;5.90;1.90;;;;;;;;;;5073786;28;20040;-59
2021/12/26 06:33:34;;;;;;;2.63;1.63;;;;;;;;;;5072956;28;20723;-59
2021/12/26 06:36:01;;;;;;;3.70;1.80;;;;;;;;;;5073105;28;20071;-60
2021/12/26 06:38:27;;;;;;;7.95;2.95;;;;;;;;;;5073560;28;20070;-59
2021/12/26 06:40:53;;;;;;;3.72;1.85;;;;;;;;;;5073561;28;20043;-59
2021/12/26 06:43:19;;;;;;;2.70;1.70;;;;;;;;;;5072641;28;20032;-59
2021/12/26 06:45:45;;;;;;;3.35;2.08;;;;;;;;;;5073318;28;20418;-59
2021/12/26 06:48:11;;;;;;;3.58;1.52;;;;;;;;;;5073107;28;20036;-58
2021/12/26 06:50:38;;;;;;;3.33;1.95;;;;;;;;;;5072424;28;20033;-59
2021/12/26 06:53:04;;;;;;;3.28;1.75;;;;;;;;;;5073406;28;20048;-59
2021/12/26 06:55:30;;;;;;;4.05;2.13;;;;;;;;;;5073274;28;20414;-59
2021/12/26 06:57:56;;;;;;;4.80;1.90;;;;;;;;;;5072475;28;20531;-60
2021/12/26 07:00:22;;;;;;;4.13;1.90;;;;;;;;;;5072905;28;20052;-59
2021/12/26 07:02:48;;;;;;;2.72;1.55;;;;;;;;;;5072649;28;20083;-59
2021/12/26 07:05:15;;;;;;;2.65;2.00;;;;;;;;;;5072156;28;20045;-59
2021/12/26 07:07:41;;;;;;;3.15;2.30;;;;;;;;;;5072738;28;20070;-59
2021/12/26 07:10:08;;;;;;;3.08;2.03;;;;;;;;;;5072745;28;20102;-59
2021/12/26 07:12:34;;;;;;;4.72;2.30;;;;;;;;;;5072023;28;20049;-59
2021/12/26 07:15:00;;;;;;;5.00;2.40;;;;;;;;;;5072868;28;20044;-59
2021/12/26 07:17:26;;;;;;;6.90;2.00;;;;;;;;;;5072629;28;20044;-59
2021/12/26 07:19:52;;;;;;;4.60;2.28;;;;;;;;;;5071829;28;20040;-60
2021/12/26 07:22:18;;;;;;;3.30;2.10;;;;;;;;;;5072358;28;20059;-59
2021/12/26 07:24:46;;;;;;;7.22;2.22;;;;;;;;;;5072533;28;20463;-59
2021/12/26 07:27:13;;;;;;;4.63;2.10;;;;;;;;;;5071694;28;20072;-59
2021/12/26 07:29:39;;;;;;;6.10;2.75;;;;;;;;;;5072378;28;20072;-59
2021/12/26 07:32:06;;;;;;;3.15;2.10;;;;;;;;;;5072416;28;20560;-59
2021/12/26 07:34:33;;;;;;;3.38;2.13;;;;;;;;;;5071620;28;20486;-60
2021/12/26 07:36:59;;;;;;;4.00;2.40;;;;;;;;;;5071911;28;20037;-59
2021/12/26 07:39:25;;;;;;;6.05;2.53;;;;;;;;;;5072148;28;20391;-60
2021/12/26 07:41:51;;;;;;;6.97;2.35;;;;;;;;;;5071710;28;20044;-59
2021/12/26 07:44:17;;;;;;;5.25;2.13;;;;;;;;;;5071374;28;20041;-59
2021/12/26 07:46:43;;;;;;;3.55;2.58;;;;;;;;;;5071886;28;20048;-59
2021/12/26 07:49:10;;;;;;;4.30;2.63;;;;;;;;;;5071410;28;20562;-59
2021/12/26 07:51:36;;;;;;;3.85;2.15;;;;;;;;;;5072336;28;20530;-59
2021/12/26 07:54:02;;;;;;;3.85;2.67;;;;;;;;;;5071948;28;20040;-59
2021/12/26 07:56:32;;;;;;;4.57;2.47;;;;;;;;;;5071110;28;20034;-59
2021/12/26 07:58:58;;;;;;;3.90;2.60;;;;;;;;;;5071848;28;20037;-60
2021/12/26 08:01:28;;;;;;;7.07;2.78;;;;;;;;;;5071988;28;20039;-59
2021/12/26 08:03:55;;;;;;;4.22;2.47;;;;;;;;;;5071049;28;20090;-60
2021/12/26 08:06:21;;;;;;;5.15;2.65;;;;;;;;;;5071651;28;20045;-59
2021/12/26 08:08:47;;;;;;;4.93;2.60;;;;;;;;;;5071869;28;20048;-59
2021/12/26 08:11:13;;;;;;;4.60;2.60;;;;;;;;;;5070769;28;20042;-59
2021/12/26 08:13:39;;;;;;;6.40;2.80;;;;;;;;;;5071571;28;20119;-60
2021/12/26 08:16:06;;;;;;;5.18;2.97;;;;;;;;;;5071745;28;20775;-60
2021/12/26 08:18:32;;;;;;;6.85;3.00;;;;;;;;;;5071117;28;20028;-59
2021/12/26 08:20:58;;;;;;;6.68;3.05;;;;;;;;;;5071809;28;20441;-60
2021/12/26 08:23:24;;;;;;;5.53;2.90;;;;;;;;;;5071013;28;20056;-59
2021/12/26 08:25:50;;;;;;;5.57;2.60;;;;;;;;;;5070740;28;20040;-59
2021/12/26 08:28:16;;;;;;;6.25;3.25;;;;;;;;;;5071552;28;20036;-59
2021/12/26 08:30:43;;;;;;;5.95;3.20;;;;;;;;;;5071588;28;20036;-60
2021/12/26 08:33:09;;;;;;;5.80;3.05;;;;;;;;;;5070856;28;20147;-60
2021/12/26 08:35:37;;;;;;;5.80;2.80;;;;;;;;;;5071515;28;20080;-60
2021/12/26 08:38:04;;;;;;;5.93;2.88;;;;;;;;;;5071497;28;20044;-59
2021/12/26 08:40:30;;;;;;;6.82;4.03;;;;;;;;;;5070415;28;20040;-60
2021/12/26 08:42:56;;;;;;;7.10;2.92;;;;;;;;;;5071299;28;20041;-60
2021/12/26 08:45:22;;;;;;;7.75;3.92;;;;;;;;;;5071334;28;20456;-59
2021/12/26 08:47:48;;;;;;;8.20;3.13;;;;;;;;;;5070607;28;20145;-59
2021/12/26 08:50:15;;;;;;;5.82;3.10;;;;;;;;;;5071091;28;20040;-60
2021/12/26 08:52:41;;;;;;;6.55;2.95;;;;;;;;;;5071221;28;20129;-59
2021/12/26 08:55:08;;;;;;;7.95;3.75;;;;;;;;;;5070398;28;20036;-60
2021/12/26 08:57:34;;;;;;;8.68;3.83;;;;;;;;;;5074449;28;20052;-59
2021/12/26 09:00:00;;;;;;;7.70;3.10;;;;;;;;;;5075335;28;20433;-59
2021/12/26 09:02:26;;;;;;;6.15;3.10;;;;;;;;;;5074547;28;20047;-59
2021/12/26 09:04:53;;;;;;;6.65;3.00;;;;;;;;;;5075265;28;20036;-60
2021/12/26 09:07:19;;;;;;;6.43;3.17;;;;;;;;;;5075086;28;20036;-60
2021/12/26 09:09:46;;;;;;;5.45;3.30;;;;;;;;;;5074726;28;20048;-60
2021/12/26 09:12:12;;;;;;;7.80;3.35;;;;;;;;;;5074420;28;20040;-60
2021/12/26 09:14:38;;;;;;;5.07;3.00;;;;;;;;;;5074719;28;20040;-60
2021/12/26 09:17:05;;;;;;;5.00;3.17;;;;;;;;;;5075351;28;20081;-60
2021/12/26 09:19:32;;;;;;;5.57;3.10;;;;;;;;;;5074438;28;20044;-60
2021/12/26 09:22:03;;;;;;;11.18;3.03;;;;;;;;;;5074677;28;20590;-59
2021/12/26 09:24:29;;;;;;;7.13;3.40;;;;;;;;;;5074551;28;20048;-60
2021/12/26 09:26:55;;;;;;;5.78;3.10;;;;;;;;;;5073904;28;20062;-60
2021/12/26 09:29:21;;;;;;;6.30;3.00;;;;;;;;;;5074594;28;20470;-60
2021/12/26 09:31:48;;;;;;;6.95;2.90;;;;;;;;;;5074908;28;20036;-60
2021/12/26 09:34:14;;;;;;;6.25;3.65;;;;;;;;;;5074004;28;20098;-59
2021/12/26 09:36:41;;;;;;;10.27;3.85;;;;;;;;;;5074713;28;20072;-60
2021/12/26 09:39:07;;;;;;;7.72;3.15;;;;;;;;;;5074685;28;20115;-60
2021/12/26 09:41:33;;;;;;;9.25;3.47;;;;;;;;;;5074122;28;20040;-60
2021/12/26 09:43:59;;;;;;;6.32;3.50;;;;;;;;;;5074141;28;20072;-60
2021/12/26 09:46:28;;;;;;;7.07;3.38;;;;;;;;;;5074451;28;20080;-60
2021/12/26 09:48:54;;;;;;;5.18;3.60;;;;;;;;;;5073804;28;20109;-59
2021/12/26 09:51:20;;;;;;;7.57;3.83;;;;;;;;;;5074369;28;20560;-60
2021/12/26 09:53:46;;;;;;;6.38;3.13;;;;;;;;;;5074361;28;20034;-60
2021/12/26 09:56:14;;;;;;;8.20;3.83;;;;;;;;;;5073826;28;20643;-60
2021/12/26 09:58:52;;;;;;;6.43;3.40;;;;;;;;;;5074206;28;20076;-60
2021/12/26 10:01:35;;;;;;;5.35;3.33;;;;;;;;;;5074313;28;20122;-60
2021/12/26 10:04:02;;;;;;;8.20;3.60;;;;;;;;;;5073928;28;20036;-60
2021/12/26 10:06:32;;;;;;;5.80;3.75;;;;;;;;;;5074172;28;20075;-60
2021/12/26 10:09:00;;;;;;;7.47;3.55;;;;;;;;;;5073039;28;20514;-60
2021/12/26 10:11:31;;;;;;;6.60;3.70;;;;;;;;;;5106214;28;20083;-60
2021/12/26 10:14:01;;;;;;;10.23;4.22;;;;;;;;;;5106436;28;20044;-60
2021/12/26 10:16:29;;;;;;;7.32;3.90;;;;;;;;;;5073392;28;20044;-60
2021/12/26 10:18:56;;;;;;;7.85;3.67;;;;;;;;;;5074017;28;20048;-59
2021/12/26 10:21:34;;;;;;;6.75;3.60;;;;;;;;;;5073691;28;20048;-60
2021/12/26 10:24:03;;;;;;;10.32;4.50;;;;;;;;;;5072746;28;20560;-60
2021/12/26 10:26:38;;;;;;;7.85;4.10;;;;;;;;;;5073822;28;20044;-60
2021/12/26 10:29:13;;;;;;;7.82;3.75;;;;;;;;;;5073354;28;20044;-60
2021/12/26 10:31:43;;;;;;;8.52;4.07;;;;;;;;;;5072771;28;20044;-60
2021/12/26 10:34:20;;;;;;;6.00;4.18;;;;;;;;;;5071992;28;20510;-60
2021/12/26 10:36:48;;;;;;;7.93;4.20;;;;;;;;;;5073614;28;20041;-60
2021/12/26 10:39:17;;;;;;;8.38;4.55;;;;;;;;;;5072831;28;20188;-60
2021/12/26 10:41:45;;;;;;;7.30;3.90;;;;;;;;;;5073505;28;20036;-60
2021/12/26 10:44:24;;;;;;;7.30;3.88;;;;;;;;;;5073478;28;20048;-60
2021/12/26 10:46:51;;;;;;;8.75;4.18;;;;;;;;;;5072883;28;20063;-60
2021/12/26 10:49:23;;;;;;;6.35;3.70;;;;;;;;;;5073318;28;20059;-60
2021/12/26 10:51:49;;;;;;;7.13;3.95;;;;;;;;;;5073306;28;20085;-60
2021/12/26 10:54:16;;;;;;;6.80;3.75;;;;;;;;;;5072544;28;20040;-60
2021/12/26 10:56:42;;;;;;;7.53;4.32;;;;;;;;;;5073416;28;20041;-60
2021/12/26 10:59:18;;;;;;;9.50;3.90;;;;;;;;;;5073107;28;20498;-60
2021/12/26 11:01:44;;;;;;;8.65;4.13;;;;;;;;;;5072628;28;20080;-60
2021/12/26 11:04:12;;;;;;;6.90;3.78;;;;;;;;;;5072943;28;20098;-60
2021/12/26 11:06:57;;;;;;;6.50;3.63;;;;;;;;;;5073063;28;20063;-60
2021/12/26 11:09:24;;;;;;;8.23;4.13;;;;;;;;;;5072414;28;20483;-60
2021/12/26 11:12:02;;;;;;;6.13;3.67;;;;;;;;;;5072848;28;20044;-60
2021/12/26 11:14:28;;;;;;;8.60;4.05;;;;;;;;;;5072507;28;20136;-60
2021/12/26 11:16:54;;;;;;;8.05;4.40;;;;;;;;;;5072193;28;20124;-60
2021/12/26 11:19:40;;;;;;;7.20;4.30;;;;;;;;;;5072738;28;20044;-60
2021/12/26 11:22:06;;;;;;;8.25;4.50;;;;;;;;;;5072048;28;20047;-60
2021/12/26 11:24:33;;;;;;;6.13;3.78;;;;;;;;;;5071913;28;20079;-60
2021/12/26 11:26:59;;;;;;;8.18;4.32;;;;;;;;;;5072619;28;20037;-60
2021/12/26 11:29:25;;;;;;;10.23;4.38;;;;;;;;;;5072441;28;20083;-60
2021/12/26 11:31:54;;;;;;;7.38;3.67;;;;;;;;;;5071850;28;20058;-60
2021/12/26 11:34:20;;;;;;;6.05;3.65;;;;;;;;;;5072274;28;20052;-60
2021/12/26 11:36:49;;;;;;;7.53;3.95;;;;;;;;;;5072227;28;20040;-60
2021/12/26 11:39:15;;;;;;;5.47;3.80;;;;;;;;;;5071345;28;20036;-60
2021/12/26 11:41:54;;;;;;;9.15;4.10;;;;;;;;;;5072266;28;20041;-60
2021/12/26 11:44:23;;;;;;;8.50;4.20;;;;;;;;;;5072068;28;20051;-60
2021/12/26 11:46:58;;;;;;;6.47;3.80;;;;;;;;;;5071564;28;20044;-60
2021/12/26 11:49:42;;;;;;;8.40;4.38;;;;;;;;;;5072272;28;20380;-60
2021/12/26 11:52:17;;;;;;;9.52;4.07;;;;;;;;;;5072020;28;20127;-60
2021/12/26 11:55:02;;;;;;;6.82;4.25;;;;;;;;;;5071419;28;20049;-60
2021/12/26 11:57:43;;;;;;;8.00;4.45;;;;;;;;;;5072018;28;20083;-60
2021/12/26 12:00:10;;;;;;;7.22;4.70;;;;;;;;;;5071380;28;20045;-60
2021/12/26 12:02:37;;;;;;;8.10;4.00;;;;;;;;;;5071887;28;20044;-60
2021/12/26 12:05:18;;;;;;;8.60;4.32;;;;;;;;;;5071861;28;20037;-60
2021/12/26 12:07:45;;;;;;;10.02;4.40;;;;;;;;;;5103641;28;20052;-60
2021/12/26 12:10:30;;;;;;;9.18;4.07;;;;;;;;;;5071882;28;20115;-60
2021/12/26 12:12:56;;;;;;;7.80;4.72;;;;;;;;;;5071588;28;20131;-60
2021/12/26 12:15:41;;;;;;;8.45;4.22;;;;;;;;;;5071231;28;20043;-60
2021/12/26 12:18:09;;;;;;;7.57;4.45;;;;;;;;;;5071650;28;20132;-60
2021/12/26 12:20:35;;;;;;;7.63;4.32;;;;;;;;;;5071649;28;20044;-60
2021/12/26 12:23:04;;;;;;;6.63;4.18;;;;;;;;;;5070636;28;20384;-60
2021/12/26 12:25:38;;;;;;;7.80;4.55;;;;;;;;;;5071633;28;20115;-61
2021/12/26 12:28:05;;;;;;;7.50;4.30;;;;;;;;;;5071668;28;20101;-60
2021/12/26 12:30:31;;;;;;;7.50;4.35;;;;;;;;;;5070763;28;20406;-60
2021/12/26 12:33:15;;;;;;;8.63;4.53;;;;;;;;;;5070947;28;20037;-60
2021/12/26 12:35:52;;;;;;;7.03;4.80;;;;;;;;;;5071629;28;20044;-60
2021/12/26 12:38:23;;;;;;;9.95;4.63;;;;;;;;;;5070683;28;20123;-60
2021/12/26 12:40:49;;;;;;;9.55;4.95;;;;;;;;;;5071615;28;20090;-60
2021/12/26 12:43:17;;;;;;;6.35;3.97;;;;;;;;;;5071392;28;20417;-60
2021/12/26 12:45:57;;;;;;;5.82;3.75;;;;;;;;;;5070570;28;20059;-60
2021/12/26 12:48:24;;;;;;;7.97;4.10;;;;;;;;;;5071430;28;20487;-60
2021/12/26 12:50:51;;;;;;;7.60;4.07;;;;;;;;;;5071372;28;20041;-60
2021/12/26 12:53:36;;;;;;;8.18;4.25;;;;;;;;;;5068951;28;20103;-60
2021/12/26 12:56:02;;;;;;;6.95;4.57;;;;;;;;;;5070154;28;20037;-60
2021/12/26 12:58:32;;;;;;;7.95;4.40;;;;;;;;;;5071264;28;20390;-61
2021/12/26 13:01:02;;;;;;;6.50;4.43;;;;;;;;;;5070697;28;20383;-60
2021/12/26 13:03:31;;;;;;;9.00;5.25;;;;;;;;;;5071156;28;20040;-60
2021/12/26 13:06:05;;;;;;;7.35;4.22;;;;;;;;;;5071176;28;20052;-60
2021/12/26 13:08:33;;;;;;;7.13;4.88;;;;;;;;;;5070658;28;20044;-60
2021/12/26 13:11:01;;;;;;;6.95;4.43;;;;;;;;;;5071315;28;20360;-60
2021/12/26 13:13:27;;;;;;;8.05;4.45;;;;;;;;;;5070945;28;20041;-61
2021/12/26 13:15:54;;;;;;;6.72;4.15;;;;;;;;;;5070597;28;20394;-61
2021/12/26 13:18:21;;;;;;;8.38;4.47;;;;;;;;;;5071153;28;20040;-60
2021/12/26 13:20:51;;;;;;;7.03;4.20;;;;;;;;;;5071152;28;20406;-60
2021/12/26 13:23:17;;;;;;;8.00;4.70;;;;;;;;;;5070051;28;20052;-61
2021/12/26 13:25:51;;;;;;;7.20;4.30;;;;;;;;;;5071098;28;20051;-61
2021/12/26 13:28:19;;;;;;;7.25;4.18;;;;;;;;;;5071170;28;20120;-61
2021/12/26 13:30:48;;;;;;;9.18;4.20;;;;;;;;;;5070360;28;20110;-61
2021/12/26 13:33:17;;;;;;;7.95;4.65;;;;;;;;;;5070815;28;20071;-61
2021/12/26 13:35:43;;;;;;;7.55;4.55;;;;;;;;;;5070959;28;20048;-61
2021/12/26 13:38:09;;;;;;;6.53;4.30;;;;;;;;;;5070393;28;20047;-61
2021/12/26 13:40:40;;;;;;;9.15;4.90;;;;;;;;;;5070975;28;20044;-61
2021/12/26 13:43:06;;;;;;;6.90;4.85;;;;;;;;;;5071333;28;20040;-61
2021/12/26 13:45:34;;;;;;;8.60;4.03;;;;;;;;;;5073793;28;20044;-61
2021/12/26 13:48:00;;;;;;;6.43;4.55;;;;;;;;;;5074508;28;20086;-61
2021/12/26 13:50:27;;;;;;;7.68;4.78;;;;;;;;;;5074529;28;20068;-61
2021/12/26 13:53:06;;;;;;;10.07;5.07;;;;;;;;;;5073326;28;20032;-61
2021/12/26 13:55:33;;;;;;;7.60;4.60;;;;;;;;;;5074529;28;20037;-61
2021/12/26 13:58:00;;;;;;;7.88;4.63;;;;;;;;;;5074417;28;20040;-61
2021/12/26 14:00:26;;;;;;;9.23;4.93;;;;;;;;;;5073719;28;20528;-61
2021/12/26 14:02:53;;;;;;;6.88;4.43;;;;;;;;;;5074253;28;20056;-61
2021/12/26 14:05:20;;;;;;;6.97;4.60;;;;;;;;;;5074161;28;20090;-61
2021/12/26 14:07:53;;;;;;;7.38;4.82;;;;;;;;;;5073454;28;20044;-61
2021/12/26 14:10:20;;;;;;;7.50;4.90;;;;;;;;;;5074115;28;20044;-61
2021/12/26 14:12:49;;;;;;;9.23;4.97;;;;;;;;;;5073999;28;20041;-61
2021/12/26 14:15:23;;;;;;;7.88;5.10;;;;;;;;;;5073139;28;20049;-60
2021/12/26 14:18:05;;;;;;;7.70;5.10;;;;;;;;;;5074198;28;20045;-61
2021/12/26 14:20:45;;;;;;;7.28;5.20;;;;;;;;;;5073935;28;20422;-61
2021/12/26 14:23:22;;;;;;;8.82;5.68;;;;;;;;;;5073514;28;20442;-61
2021/12/26 14:25:52;;;;;;;10.27;5.03;;;;;;;;;;5073619;28;20036;-61
2021/12/26 14:28:19;;;;;;;10.30;4.63;;;;;;;;;;5073300;28;20195;-60
2021/12/26 14:30:46;;;;;;;8.68;4.90;;;;;;;;;;5073790;28;20043;-61
2021/12/26 14:33:13;;;;;;;9.10;5.25;;;;;;;;;;5073652;28;20083;-61
2021/12/26 14:35:40;;;;;;;8.50;5.00;;;;;;;;;;5072842;28;20032;-61
2021/12/26 14:38:13;;;;;;;9.90;5.00;;;;;;;;;;5073670;28;20048;-61
2021/12/26 14:40:54;;;;;;;9.15;5.40;;;;;;;;;;5071969;28;20051;-60
2021/12/26 14:43:21;;;;;;;10.25;6.00;;;;;;;;;;5072709;28;20033;-60
2021/12/26 14:45:48;;;;;;;9.63;5.25;;;;;;;;;;5073457;28;20394;-60
2021/12/26 14:48:25;;;;;;;8.80;5.22;;;;;;;;;;5073658;28;20076;-60
2021/12/26 14:50:51;;;;;;;10.32;5.13;;;;;;;;;;5072911;28;20036;-60
2021/12/26 14:53:17;;;;;;;8.80;5.15;;;;;;;;;;5073118;28;20468;-61